MSC Krittika — H3RV — position and weather

sailwx.info

Track history (hours):
 
Tides and Currents Weather Stations Pressure Air Temp Water Temp Dewpoint Dewpoint Depression Visibility Wind Speed Wind Dir Waves Ship Positions

MSC Krittika

Last reported at 2015-Jul-31 00:33 UTC. Time now 2015-Jul-31 00:56 UTC.
Position S 39°09' E 147°01'.

Length 202 m; draft 8.3 m.

Type: Ship (hazmat cat A). MMSI: 354725000.

Date/timePositionNaut miles runAvg speedWind from/ knotsBaromVisibWave heightAir tempDewpointWater temp
2015-Jul-31 00:33S 39°09' E 147°01'1615.8
2015-Jul-30 23:33S 39°14' E 146°42'1515.4
2015-Jul-30 22:33S 39°17' E 146°22'1615.7
2015-Jul-30 21:33S 39°12' E 146°03'1616.3
2015-Jul-30 20:33S 39°05' E 145°44'109 2.1
2015-Jul-28 17:27S 38°59' E 143°24'1513.2
2015-Jul-28 16:21S 38°56' E 143°05'1013.0
2015-Jul-28 15:33S 38°54' E 142°52'1313.1
2015-Jul-28 14:33S 38°50' E 142°36'1312.9
2015-Jul-28 13:33S 38°47' E 142°20'1313.1
2015-Jul-28 12:33S 38°43' E 142°04'1312.9
2015-Jul-28 11:33S 38°39' E 141°49'1312.4
2015-Jul-28 10:33S 38°36' E 141°33'1312.6
2015-Jul-28 09:33S 38°32' E 141°18'264 8.0
2015-Jul-27 00:30S 34°51' E 138°19'  
2015-Jul-22 16:12S 31°56' E 115°21'914.5
2015-Jul-22 15:33S 31°56' E 115°32'1211.5
2015-Jul-22 14:33S 32°03' E 115°43'2 1.8
2015-Jul-22 13:31S 32°03' E 115°45'0 0.0
2015-Jul-22 12:31S 32°03' E 115°45'0 0.0
2015-Jul-22 11:31S 32°03' E 115°45'0 0.0
2015-Jul-22 10:31S 32°03' E 115°45'0 0.0
2015-Jul-22 09:31S 32°03' E 115°45'0 0.0
2015-Jul-22 08:31S 32°03' E 115°45'0 0.0
2015-Jul-22 07:28S 32°03' E 115°45'0 0.0
2015-Jul-22 06:31S 32°03' E 115°45'0 0.0
2015-Jul-22 05:31S 32°03' E 115°45'0 0.0
2015-Jul-22 04:31S 32°03' E 115°45'0 0.0
2015-Jul-22 03:31S 32°03' E 115°45'0 0.0
2015-Jul-22 02:31S 32°03' E 115°45'0 0.0
2015-Jul-22 01:31S 32°03' E 115°45'0 0.0
2015-Jul-22 00:31S 32°03' E 115°45'0 0.0
2015-Jul-21 23:31S 32°03' E 115°45'0 0.0
2015-Jul-21 22:31S 32°03' E 115°45'1 0.7
2015-Jul-21 21:33S 32°03' E 115°44'4 4.2
2015-Jul-21 20:33S 32°01' E 115°40'0 0.1
2015-Jul-21 19:33S 32°01' E 115°40'0 0.1
2015-Jul-21 18:33S 32°01' E 115°40'0 0.1
2015-Jul-21 17:33S 32°01' E 115°40'0 0.1
2015-Jul-21 16:33S 32°01' E 115°40'0 0.1
2015-Jul-21 15:33S 32°01' E 115°40'0 0.0
2015-Jul-21 14:33S 32°01' E 115°40'0 0.1
2015-Jul-21 13:33S 32°01' E 115°40'0 0.2
2015-Jul-21 12:33S 32°01' E 115°40'0 0.1
2015-Jul-21 11:33S 32°01' E 115°40'0 0.1
2015-Jul-21 10:33S 32°01' E 115°40'0 0.1
2015-Jul-21 09:33S 32°01' E 115°40'0 0.5
2015-Jul-21 08:33S 32°01' E 115°40'7 7.0
2015-Jul-21 07:33S 31°55' E 115°36'  
Track history (hours):
 
Tides and Currents Weather Stations Pressure Air Temp Water Temp Dewpoint Dewpoint Depression Visibility Wind Speed Wind Dir Waves Ship Positions

MSC Krittika

Last reported at 2015-Jul-31 00:33 UTC. Time now 2015-Jul-31 00:56 UTC.
Position S 39°09' E 147°01'.

Length 202 m; draft 8.3 m.

Type: Ship (hazmat cat A). MMSI: 354725000.

Date/timePositionNaut miles runAvg speedWind from/ knotsBaromVisibWave heightAir tempDewpointWater temp
2015-Jul-31 00:33S 39°09' E 147°01'1615.8
2015-Jul-30 23:33S 39°14' E 146°42'1515.4
2015-Jul-30 22:33S 39°17' E 146°22'1615.7
2015-Jul-30 21:33S 39°12' E 146°03'1616.3
2015-Jul-30 20:33S 39°05' E 145°44'109 2.1
2015-Jul-28 17:27S 38°59' E 143°24'1513.2
2015-Jul-28 16:21S 38°56' E 143°05'1013.0
2015-Jul-28 15:33S 38°54' E 142°52'1313.1
2015-Jul-28 14:33S 38°50' E 142°36'1312.9
2015-Jul-28 13:33S 38°47' E 142°20'1313.1
2015-Jul-28 12:33S 38°43' E 142°04'1312.9
2015-Jul-28 11:33S 38°39' E 141°49'1312.4
2015-Jul-28 10:33S 38°36' E 141°33'1312.6
2015-Jul-28 09:33S 38°32' E 141°18'264 8.0
2015-Jul-27 00:30S 34°51' E 138°19'  
2015-Jul-22 16:12S 31°56' E 115°21'914.5
2015-Jul-22 15:33S 31°56' E 115°32'1211.5
2015-Jul-22 14:33S 32°03' E 115°43'2 1.8
2015-Jul-22 13:31S 32°03' E 115°45'0 0.0
2015-Jul-22 12:31S 32°03' E 115°45'0 0.0
2015-Jul-22 11:31S 32°03' E 115°45'0 0.0
2015-Jul-22 10:31S 32°03' E 115°45'0 0.0
2015-Jul-22 09:31S 32°03' E 115°45'0 0.0
2015-Jul-22 08:31S 32°03' E 115°45'0 0.0
2015-Jul-22 07:28S 32°03' E 115°45'0 0.0
2015-Jul-22 06:31S 32°03' E 115°45'0 0.0
2015-Jul-22 05:31S 32°03' E 115°45'0 0.0
2015-Jul-22 04:31S 32°03' E 115°45'0 0.0
2015-Jul-22 03:31S 32°03' E 115°45'0 0.0
2015-Jul-22 02:31S 32°03' E 115°45'0 0.0
2015-Jul-22 01:31S 32°03' E 115°45'0 0.0
2015-Jul-22 00:31S 32°03' E 115°45'0 0.0
2015-Jul-21 23:31S 32°03' E 115°45'0 0.0
2015-Jul-21 22:31S 32°03' E 115°45'1 0.7
2015-Jul-21 21:33S 32°03' E 115°44'4 4.2
2015-Jul-21 20:33S 32°01' E 115°40'0 0.1
2015-Jul-21 19:33S 32°01' E 115°40'0 0.1
2015-Jul-21 18:33S 32°01' E 115°40'0 0.1
2015-Jul-21 17:33S 32°01' E 115°40'0 0.1
2015-Jul-21 16:33S 32°01' E 115°40'0 0.1
2015-Jul-21 15:33S 32°01' E 115°40'0 0.0
2015-Jul-21 14:33S 32°01' E 115°40'0 0.1
2015-Jul-21 13:33S 32°01' E 115°40'0 0.2
2015-Jul-21 12:33S 32°01' E 115°40'0 0.1
2015-Jul-21 11:33S 32°01' E 115°40'0 0.1
2015-Jul-21 10:33S 32°01' E 115°40'0 0.1
2015-Jul-21 09:33S 32°01' E 115°40'0 0.5
2015-Jul-21 08:33S 32°01' E 115°40'7 7.0
2015-Jul-21 07:33S 31°55' E 115°36'  

Dump ship's entire track history